<?xml version="1.0" encoding="UTF-8" standalone="no" ?>
<gpx xmlns="http://www.topografix.com/GPX/1/1" xmlns:xsi="http://www.w3.org/2001/XMLSchema-instance" xsi:schemaLocation="http://www.topografix.com/GPX/1/1 http://www.topografix.com/GPX/1/1/gpx.xsd" version="1.1" creator="VisuGPX - https://www.visugpx.com">
  <metadata>
    <name>GR20 etape 6</name>
  </metadata>
  <trk>
    <name><![CDATA[GR20 Traversée de la Corse (2020)]]></name>
    <trkseg>
      <trkpt lat="42.33526" lon="8.86834">
        <ele>2000.065</ele>
        <time>2020-03-19T21:29:44Z</time>
      </trkpt>
      <trkpt lat="42.33503" lon="8.86798">
        <ele>1998.711</ele>
        <time>2020-03-19T21:30:04Z</time>
      </trkpt>
      <trkpt lat="42.33487" lon="8.8679">
        <ele>1991.708</ele>
        <time>2020-03-19T21:30:24Z</time>
      </trkpt>
      <trkpt lat="42.33476" lon="8.8676">
        <ele>1993.535</ele>
        <time>2020-03-19T21:30:44Z</time>
      </trkpt>
      <trkpt lat="42.33452" lon="8.86717">
        <ele>1991.798</ele>
        <time>2020-03-19T21:31:04Z</time>
      </trkpt>
      <trkpt lat="42.33452" lon="8.8668">
        <ele>1998.39</ele>
        <time>2020-03-19T21:31:24Z</time>
      </trkpt>
      <trkpt lat="42.33436" lon="8.86627">
        <ele>1997.058</ele>
        <time>2020-03-19T21:31:44Z</time>
      </trkpt>
      <trkpt lat="42.33368" lon="8.86476">
        <ele>1996.552</ele>
        <time>2020-03-19T21:32:04Z</time>
      </trkpt>
      <trkpt lat="42.33318" lon="8.86395">
        <ele>1994.736</ele>
        <time>2020-03-19T21:32:24Z</time>
      </trkpt>
      <trkpt lat="42.33265" lon="8.86346">
        <ele>1982.759</ele>
        <time>2020-03-19T21:32:44Z</time>
      </trkpt>
      <trkpt lat="42.3322" lon="8.86315">
        <ele>1974.095</ele>
        <time>2020-03-19T21:33:04Z</time>
      </trkpt>
      <trkpt lat="42.33186" lon="8.86279">
        <ele>1972.769</ele>
        <time>2020-03-19T21:33:24Z</time>
      </trkpt>
      <trkpt lat="42.33147" lon="8.86235">
        <ele>1966.904</ele>
        <time>2020-03-19T21:33:44Z</time>
      </trkpt>
      <trkpt lat="42.33107" lon="8.86203">
        <ele>1960.024</ele>
        <time>2020-03-19T21:34:04Z</time>
      </trkpt>
      <trkpt lat="42.33089" lon="8.86179">
        <ele>1955.908</ele>
        <time>2020-03-19T21:34:24Z</time>
      </trkpt>
      <trkpt lat="42.33064" lon="8.86177">
        <ele>1946.32</ele>
        <time>2020-03-19T21:34:44Z</time>
      </trkpt>
      <trkpt lat="42.33022" lon="8.86161">
        <ele>1943.473</ele>
        <time>2020-03-19T21:35:04Z</time>
      </trkpt>
      <trkpt lat="42.32932" lon="8.86166">
        <ele>1936.755</ele>
        <time>2020-03-19T21:35:24Z</time>
      </trkpt>
      <trkpt lat="42.32888" lon="8.86178">
        <ele>1941.073</ele>
        <time>2020-03-19T21:35:44Z</time>
      </trkpt>
      <trkpt lat="42.32839" lon="8.86162">
        <ele>1937.137</ele>
        <time>2020-03-19T21:36:04Z</time>
      </trkpt>
      <trkpt lat="42.32825" lon="8.86166">
        <ele>1936.751</ele>
        <time>2020-03-19T21:36:24Z</time>
      </trkpt>
      <trkpt lat="42.32782" lon="8.86127">
        <ele>1923.234</ele>
        <time>2020-03-19T21:36:44Z</time>
      </trkpt>
      <trkpt lat="42.32767" lon="8.86123">
        <ele>1919.34</ele>
        <time>2020-03-19T21:37:04Z</time>
      </trkpt>
      <trkpt lat="42.32721" lon="8.8609">
        <ele>1905.821</ele>
        <time>2020-03-19T21:37:24Z</time>
      </trkpt>
      <trkpt lat="42.32668" lon="8.8607">
        <ele>1896.741</ele>
        <time>2020-03-19T21:37:44Z</time>
      </trkpt>
      <trkpt lat="42.32628" lon="8.86075">
        <ele>1885.605</ele>
        <time>2020-03-19T21:38:04Z</time>
      </trkpt>
      <trkpt lat="42.32611" lon="8.8607">
        <ele>1881.008</ele>
        <time>2020-03-19T21:38:24Z</time>
      </trkpt>
      <trkpt lat="42.32595" lon="8.86072">
        <ele>1879.296</ele>
        <time>2020-03-19T21:38:44Z</time>
      </trkpt>
      <trkpt lat="42.32568" lon="8.86058">
        <ele>1876.189</ele>
        <time>2020-03-19T21:39:04Z</time>
      </trkpt>
      <trkpt lat="42.32512" lon="8.86061">
        <ele>1870.951</ele>
        <time>2020-03-19T21:39:24Z</time>
      </trkpt>
      <trkpt lat="42.32494" lon="8.86077">
        <ele>1864.249</ele>
        <time>2020-03-19T21:39:44Z</time>
      </trkpt>
      <trkpt lat="42.32464" lon="8.86094">
        <ele>1856.683</ele>
        <time>2020-03-19T21:40:04Z</time>
      </trkpt>
      <trkpt lat="42.32453" lon="8.86112">
        <ele>1851.237</ele>
        <time>2020-03-19T21:40:24Z</time>
      </trkpt>
      <trkpt lat="42.32412" lon="8.86126">
        <ele>1851.95</ele>
        <time>2020-03-19T21:40:44Z</time>
      </trkpt>
      <trkpt lat="42.3236" lon="8.86227">
        <ele>1852.826</ele>
        <time>2020-03-19T21:41:04Z</time>
      </trkpt>
      <trkpt lat="42.32311" lon="8.8638">
        <ele>1830.742</ele>
        <time>2020-03-19T21:41:24Z</time>
      </trkpt>
      <trkpt lat="42.32289" lon="8.8643">
        <ele>1817.422</ele>
        <time>2020-03-19T21:41:44Z</time>
      </trkpt>
      <trkpt lat="42.3229" lon="8.86462">
        <ele>1806.714</ele>
        <time>2020-03-19T21:42:04Z</time>
      </trkpt>
      <trkpt lat="42.32302" lon="8.86483">
        <ele>1796.008</ele>
        <time>2020-03-19T21:42:24Z</time>
      </trkpt>
      <trkpt lat="42.323" lon="8.86518">
        <ele>1782.078</ele>
        <time>2020-03-19T21:42:44Z</time>
      </trkpt>
      <trkpt lat="42.32293" lon="8.86545">
        <ele>1775.511</ele>
        <time>2020-03-19T21:43:04Z</time>
      </trkpt>
      <trkpt lat="42.323" lon="8.86557">
        <ele>1772.893</ele>
        <time>2020-03-19T21:43:24Z</time>
      </trkpt>
      <trkpt lat="42.32292" lon="8.86565">
        <ele>1770.641</ele>
        <time>2020-03-19T21:43:44Z</time>
      </trkpt>
      <trkpt lat="42.32335" lon="8.86581">
        <ele>1768.455</ele>
        <time>2020-03-19T21:44:04Z</time>
      </trkpt>
      <trkpt lat="42.32343" lon="8.86609">
        <ele>1763.449</ele>
        <time>2020-03-19T21:44:24Z</time>
      </trkpt>
      <trkpt lat="42.32337" lon="8.86695">
        <ele>1738.512</ele>
        <time>2020-03-19T21:44:44Z</time>
      </trkpt>
      <trkpt lat="42.32358" lon="8.86744">
        <ele>1719.778</ele>
        <time>2020-03-19T21:45:04Z</time>
      </trkpt>
      <trkpt lat="42.32343" lon="8.8677">
        <ele>1714.891</ele>
        <time>2020-03-19T21:45:24Z</time>
      </trkpt>
      <trkpt lat="42.32344" lon="8.86786">
        <ele>1711.381</ele>
        <time>2020-03-19T21:45:44Z</time>
      </trkpt>
      <trkpt lat="42.32335" lon="8.86814">
        <ele>1703.719</ele>
        <time>2020-03-19T21:46:04Z</time>
      </trkpt>
      <trkpt lat="42.32341" lon="8.86837">
        <ele>1696.708</ele>
        <time>2020-03-19T21:46:24Z</time>
      </trkpt>
      <trkpt lat="42.32315" lon="8.86879">
        <ele>1686.313</ele>
        <time>2020-03-19T21:46:44Z</time>
      </trkpt>
      <trkpt lat="42.32279" lon="8.86894">
        <ele>1683.496</ele>
        <time>2020-03-19T21:47:04Z</time>
      </trkpt>
      <trkpt lat="42.3225" lon="8.86921">
        <ele>1682.578</ele>
        <time>2020-03-19T21:47:24Z</time>
      </trkpt>
      <trkpt lat="42.3221" lon="8.8691">
        <ele>1674.476</ele>
        <time>2020-03-19T21:47:44Z</time>
      </trkpt>
      <trkpt lat="42.32166" lon="8.86918">
        <ele>1666.93</ele>
        <time>2020-03-19T21:48:04Z</time>
      </trkpt>
      <trkpt lat="42.32129" lon="8.86934">
        <ele>1666.754</ele>
        <time>2020-03-19T21:48:24Z</time>
      </trkpt>
      <trkpt lat="42.32059" lon="8.86935">
        <ele>1660.547</ele>
        <time>2020-03-19T21:48:44Z</time>
      </trkpt>
      <trkpt lat="42.32016" lon="8.86951">
        <ele>1657.393</ele>
        <time>2020-03-19T21:49:04Z</time>
      </trkpt>
      <trkpt lat="42.31934" lon="8.86952">
        <ele>1651.451</ele>
        <time>2020-03-19T21:49:24Z</time>
      </trkpt>
      <trkpt lat="42.31903" lon="8.86935">
        <ele>1648.701</ele>
        <time>2020-03-19T21:49:44Z</time>
      </trkpt>
      <trkpt lat="42.31853" lon="8.86918">
        <ele>1640.711</ele>
        <time>2020-03-19T21:50:04Z</time>
      </trkpt>
      <trkpt lat="42.31832" lon="8.86869">
        <ele>1643.508</ele>
        <time>2020-03-19T21:50:24Z</time>
      </trkpt>
      <trkpt lat="42.31803" lon="8.86842">
        <ele>1636.689</ele>
        <time>2020-03-19T21:50:44Z</time>
      </trkpt>
      <trkpt lat="42.31783" lon="8.86815">
        <ele>1634.052</ele>
        <time>2020-03-19T21:51:04Z</time>
      </trkpt>
      <trkpt lat="42.31678" lon="8.86808">
        <ele>1618.384</ele>
        <time>2020-03-19T21:51:24Z</time>
      </trkpt>
      <trkpt lat="42.31637" lon="8.86796">
        <ele>1613.952</ele>
        <time>2020-03-19T21:51:44Z</time>
      </trkpt>
      <trkpt lat="42.31618" lon="8.86798">
        <ele>1612.146</ele>
        <time>2020-03-19T21:52:04Z</time>
      </trkpt>
      <trkpt lat="42.31593" lon="8.86789">
        <ele>1610.31</ele>
        <time>2020-03-19T21:52:24Z</time>
      </trkpt>
      <trkpt lat="42.31537" lon="8.86798">
        <ele>1607.573</ele>
        <time>2020-03-19T21:52:44Z</time>
      </trkpt>
      <trkpt lat="42.3152" lon="8.86813">
        <ele>1605.559</ele>
        <time>2020-03-19T21:53:04Z</time>
      </trkpt>
      <trkpt lat="42.3147" lon="8.86819">
        <ele>1595.956</ele>
        <time>2020-03-19T21:53:24Z</time>
      </trkpt>
      <trkpt lat="42.31436" lon="8.86813">
        <ele>1594.259</ele>
        <time>2020-03-19T21:53:44Z</time>
      </trkpt>
      <trkpt lat="42.3134" lon="8.8682">
        <ele>1585.714</ele>
        <time>2020-03-19T21:54:04Z</time>
      </trkpt>
      <trkpt lat="42.31317" lon="8.86844">
        <ele>1583.208</ele>
        <time>2020-03-19T21:54:24Z</time>
      </trkpt>
      <trkpt lat="42.31289" lon="8.86857">
        <ele>1582.689</ele>
        <time>2020-03-19T21:54:44Z</time>
      </trkpt>
      <trkpt lat="42.31268" lon="8.86875">
        <ele>1581.092</ele>
        <time>2020-03-19T21:55:04Z</time>
      </trkpt>
      <trkpt lat="42.31245" lon="8.86879">
        <ele>1582.034</ele>
        <time>2020-03-19T21:55:24Z</time>
      </trkpt>
      <trkpt lat="42.3124" lon="8.86896">
        <ele>1577.112</ele>
        <time>2020-03-19T21:55:44Z</time>
      </trkpt>
      <trkpt lat="42.31207" lon="8.8692">
        <ele>1571.526</ele>
        <time>2020-03-19T21:56:04Z</time>
      </trkpt>
      <trkpt lat="42.31156" lon="8.86937">
        <ele>1575.04</ele>
        <time>2020-03-19T21:56:24Z</time>
      </trkpt>
      <trkpt lat="42.31138" lon="8.86975">
        <ele>1572.633</ele>
        <time>2020-03-19T21:56:44Z</time>
      </trkpt>
      <trkpt lat="42.31111" lon="8.86999">
        <ele>1568.289</ele>
        <time>2020-03-19T21:57:04Z</time>
      </trkpt>
      <trkpt lat="42.31081" lon="8.87019">
        <ele>1560.393</ele>
        <time>2020-03-19T21:57:24Z</time>
      </trkpt>
      <trkpt lat="42.31012" lon="8.87016">
        <ele>1556.865</ele>
        <time>2020-03-19T21:57:44Z</time>
      </trkpt>
      <trkpt lat="42.31001" lon="8.87022">
        <ele>1555.121</ele>
        <time>2020-03-19T21:58:04Z</time>
      </trkpt>
      <trkpt lat="42.31015" lon="8.87066">
        <ele>1550.708</ele>
        <time>2020-03-19T21:58:24Z</time>
      </trkpt>
      <trkpt lat="42.31013" lon="8.87102">
        <ele>1545.943</ele>
        <time>2020-03-19T21:58:44Z</time>
      </trkpt>
      <trkpt lat="42.3102" lon="8.87124">
        <ele>1545.016</ele>
        <time>2020-03-19T21:59:04Z</time>
      </trkpt>
      <trkpt lat="42.31019" lon="8.87137">
        <ele>1543.718</ele>
        <time>2020-03-19T21:59:24Z</time>
      </trkpt>
      <trkpt lat="42.31022" lon="8.87166">
        <ele>1541.876</ele>
        <time>2020-03-19T21:59:44Z</time>
      </trkpt>
      <trkpt lat="42.31008" lon="8.87183">
        <ele>1536.76</ele>
        <time>2020-03-19T22:00:04Z</time>
      </trkpt>
      <trkpt lat="42.31013" lon="8.87217">
        <ele>1536.274</ele>
        <time>2020-03-19T22:00:24Z</time>
      </trkpt>
      <trkpt lat="42.30996" lon="8.87218">
        <ele>1531.897</ele>
        <time>2020-03-19T22:00:44Z</time>
      </trkpt>
      <trkpt lat="42.31005" lon="8.87277">
        <ele>1523.793</ele>
        <time>2020-03-19T22:01:04Z</time>
      </trkpt>
      <trkpt lat="42.30989" lon="8.87314">
        <ele>1512.457</ele>
        <time>2020-03-19T22:01:24Z</time>
      </trkpt>
      <trkpt lat="42.30991" lon="8.87345">
        <ele>1506.8</ele>
        <time>2020-03-19T22:01:44Z</time>
      </trkpt>
      <trkpt lat="42.31" lon="8.87378">
        <ele>1503.22</ele>
        <time>2020-03-19T22:02:04Z</time>
      </trkpt>
      <trkpt lat="42.30999" lon="8.874">
        <ele>1500.808</ele>
        <time>2020-03-19T22:02:24Z</time>
      </trkpt>
      <trkpt lat="42.31006" lon="8.87452">
        <ele>1496.299</ele>
        <time>2020-03-19T22:02:44Z</time>
      </trkpt>
      <trkpt lat="42.30996" lon="8.8748">
        <ele>1491.962</ele>
        <time>2020-03-19T22:03:04Z</time>
      </trkpt>
      <trkpt lat="42.31" lon="8.87499">
        <ele>1495.824</ele>
        <time>2020-03-19T22:03:24Z</time>
      </trkpt>
      <trkpt lat="42.30995" lon="8.87533">
        <ele>1496.652</ele>
        <time>2020-03-19T22:03:44Z</time>
      </trkpt>
      <trkpt lat="42.30985" lon="8.87527">
        <ele>1491.296</ele>
        <time>2020-03-19T22:04:04Z</time>
      </trkpt>
      <trkpt lat="42.30959" lon="8.87538">
        <ele>1477.82</ele>
        <time>2020-03-19T22:04:24Z</time>
      </trkpt>
      <trkpt lat="42.30948" lon="8.87572">
        <ele>1469.423</ele>
        <time>2020-03-19T22:04:44Z</time>
      </trkpt>
      <trkpt lat="42.30932" lon="8.87579">
        <ele>1461.319</ele>
        <time>2020-03-19T22:05:04Z</time>
      </trkpt>
      <trkpt lat="42.30897" lon="8.87643">
        <ele>1462.956</ele>
        <time>2020-03-19T22:05:24Z</time>
      </trkpt>
      <trkpt lat="42.30882" lon="8.87655">
        <ele>1457.559</ele>
        <time>2020-03-19T22:05:44Z</time>
      </trkpt>
      <trkpt lat="42.30865" lon="8.87678">
        <ele>1453.714</ele>
        <time>2020-03-19T22:06:04Z</time>
      </trkpt>
      <trkpt lat="42.30841" lon="8.87686">
        <ele>1446.508</ele>
        <time>2020-03-19T22:06:24Z</time>
      </trkpt>
      <trkpt lat="42.30834" lon="8.87706">
        <ele>1450.089</ele>
        <time>2020-03-19T22:06:44Z</time>
      </trkpt>
      <trkpt lat="42.30826" lon="8.87703">
        <ele>1445.582</ele>
        <time>2020-03-19T22:07:04Z</time>
      </trkpt>
      <trkpt lat="42.30798" lon="8.87737">
        <ele>1440.364</ele>
        <time>2020-03-19T22:07:24Z</time>
      </trkpt>
      <trkpt lat="42.30801" lon="8.87721">
        <ele>1439.182</ele>
        <time>2020-03-19T22:07:44Z</time>
      </trkpt>
      <trkpt lat="42.30752" lon="8.87747">
        <ele>1428.876</ele>
        <time>2020-03-19T22:08:04Z</time>
      </trkpt>
      <trkpt lat="42.3069" lon="8.87761">
        <ele>1413.42</ele>
        <time>2020-03-19T22:08:24Z</time>
      </trkpt>
      <trkpt lat="42.30692" lon="8.87708">
        <ele>1409.773</ele>
        <time>2020-03-19T22:08:44Z</time>
      </trkpt>
      <trkpt lat="42.30652" lon="8.8771">
        <ele>1404.299</ele>
        <time>2020-03-19T22:09:04Z</time>
      </trkpt>
      <trkpt lat="42.30637" lon="8.87731">
        <ele>1401.069</ele>
        <time>2020-03-19T22:09:24Z</time>
      </trkpt>
      <trkpt lat="42.30594" lon="8.87708">
        <ele>1396.704</ele>
        <time>2020-03-19T22:09:44Z</time>
      </trkpt>
      <trkpt lat="42.30559" lon="8.87712">
        <ele>1388.124</ele>
        <time>2020-03-19T22:10:04Z</time>
      </trkpt>
      <trkpt lat="42.30501" lon="8.87647">
        <ele>1385.208</ele>
        <time>2020-03-19T22:10:24Z</time>
      </trkpt>
      <trkpt lat="42.30484" lon="8.87646">
        <ele>1381.32</ele>
        <time>2020-03-19T22:10:44Z</time>
      </trkpt>
      <trkpt lat="42.30435" lon="8.87567">
        <ele>1393.633</ele>
        <time>2020-03-19T22:11:04Z</time>
      </trkpt>
      <trkpt lat="42.3042" lon="8.87569">
        <ele>1387.055</ele>
        <time>2020-03-19T22:11:24Z</time>
      </trkpt>
      <trkpt lat="42.30409" lon="8.87558">
        <ele>1388.043</ele>
        <time>2020-03-19T22:11:44Z</time>
      </trkpt>
      <trkpt lat="42.30388" lon="8.87558">
        <ele>1382.167</ele>
        <time>2020-03-19T22:12:04Z</time>
      </trkpt>
      <trkpt lat="42.30384" lon="8.8753">
        <ele>1389.331</ele>
        <time>2020-03-19T22:12:24Z</time>
      </trkpt>
      <trkpt lat="42.30365" lon="8.87522">
        <ele>1390.664</ele>
        <time>2020-03-19T22:12:44Z</time>
      </trkpt>
      <trkpt lat="42.30343" lon="8.87484">
        <ele>1402.69</ele>
        <time>2020-03-19T22:13:04Z</time>
      </trkpt>
      <trkpt lat="42.30327" lon="8.87525">
        <ele>1392.817</ele>
        <time>2020-03-19T22:13:24Z</time>
      </trkpt>
      <trkpt lat="42.30303" lon="8.87538">
        <ele>1392.987</ele>
        <time>2020-03-19T22:13:44Z</time>
      </trkpt>
      <trkpt lat="42.30294" lon="8.87581">
        <ele>1379.515</ele>
        <time>2020-03-19T22:14:04Z</time>
      </trkpt>
      <trkpt lat="42.30308" lon="8.87589">
        <ele>1373.308</ele>
        <time>2020-03-19T22:14:24Z</time>
      </trkpt>
      <trkpt lat="42.30301" lon="8.87652">
        <ele>1366.815</ele>
        <time>2020-03-19T22:14:44Z</time>
      </trkpt>
      <trkpt lat="42.30268" lon="8.87692">
        <ele>1371.328</ele>
        <time>2020-03-19T22:15:04Z</time>
      </trkpt>
      <trkpt lat="42.30228" lon="8.87721">
        <ele>1385.75</ele>
        <time>2020-03-19T22:15:24Z</time>
      </trkpt>
      <trkpt lat="42.3021" lon="8.87777">
        <ele>1375.028</ele>
        <time>2020-03-19T22:15:44Z</time>
      </trkpt>
      <trkpt lat="42.30183" lon="8.87789">
        <ele>1382.322</ele>
        <time>2020-03-19T22:16:04Z</time>
      </trkpt>
      <trkpt lat="42.3019" lon="8.87838">
        <ele>1372.346</ele>
        <time>2020-03-19T22:16:24Z</time>
      </trkpt>
      <trkpt lat="42.30167" lon="8.87911">
        <ele>1375.079</ele>
        <time>2020-03-19T22:16:44Z</time>
      </trkpt>
      <trkpt lat="42.30141" lon="8.8797">
        <ele>1376.925</ele>
        <time>2020-03-19T22:17:04Z</time>
      </trkpt>
      <trkpt lat="42.30103" lon="8.88026">
        <ele>1380.131</ele>
        <time>2020-03-19T22:17:24Z</time>
      </trkpt>
      <trkpt lat="42.30075" lon="8.88095">
        <ele>1379.661</ele>
        <time>2020-03-19T22:17:44Z</time>
      </trkpt>
      <trkpt lat="42.30058" lon="8.88116">
        <ele>1388.907</ele>
        <time>2020-03-19T22:18:04Z</time>
      </trkpt>
      <trkpt lat="42.30044" lon="8.88151">
        <ele>1386.708</ele>
        <time>2020-03-19T22:18:24Z</time>
      </trkpt>
      <trkpt lat="42.30025" lon="8.88182">
        <ele>1383.247</ele>
        <time>2020-03-19T22:18:44Z</time>
      </trkpt>
      <trkpt lat="42.30012" lon="8.88241">
        <ele>1372.66</ele>
        <time>2020-03-19T22:19:04Z</time>
      </trkpt>
      <trkpt lat="42.29995" lon="8.88212">
        <ele>1375.912</ele>
        <time>2020-03-19T22:19:24Z</time>
      </trkpt>
      <trkpt lat="42.29967" lon="8.88174">
        <ele>1376.68</ele>
        <time>2020-03-19T22:19:44Z</time>
      </trkpt>
      <trkpt lat="42.29948" lon="8.88121">
        <ele>1385.274</ele>
        <time>2020-03-19T22:20:04Z</time>
      </trkpt>
      <trkpt lat="42.29902" lon="8.88099">
        <ele>1385.768</ele>
        <time>2020-03-19T22:20:24Z</time>
      </trkpt>
      <trkpt lat="42.29822" lon="8.88107">
        <ele>1379.131</ele>
        <time>2020-03-19T22:20:44Z</time>
      </trkpt>
      <trkpt lat="42.29762" lon="8.881">
        <ele>1381.597</ele>
        <time>2020-03-19T22:21:04Z</time>
      </trkpt>
      <trkpt lat="42.29736" lon="8.88084">
        <ele>1385.978</ele>
        <time>2020-03-19T22:21:24Z</time>
      </trkpt>
      <trkpt lat="42.29726" lon="8.88064">
        <ele>1391.033</ele>
        <time>2020-03-19T22:21:44Z</time>
      </trkpt>
      <trkpt lat="42.29702" lon="8.88053">
        <ele>1399.926</ele>
        <time>2020-03-19T22:22:04Z</time>
      </trkpt>
      <trkpt lat="42.29668" lon="8.88138">
        <ele>1403.608</ele>
        <time>2020-03-19T22:22:24Z</time>
      </trkpt>
      <trkpt lat="42.29655" lon="8.88228">
        <ele>1397.921</ele>
        <time>2020-03-19T22:22:44Z</time>
      </trkpt>
      <trkpt lat="42.29626" lon="8.88281">
        <ele>1397.764</ele>
        <time>2020-03-19T22:23:04Z</time>
      </trkpt>
      <trkpt lat="42.29557" lon="8.883">
        <ele>1398.856</ele>
        <time>2020-03-19T22:23:24Z</time>
      </trkpt>
      <trkpt lat="42.29466" lon="8.8825">
        <ele>1405.744</ele>
        <time>2020-03-19T22:23:44Z</time>
      </trkpt>
      <trkpt lat="42.29439" lon="8.88241">
        <ele>1407.478</ele>
        <time>2020-03-19T22:24:04Z</time>
      </trkpt>
      <trkpt lat="42.29374" lon="8.88253">
        <ele>1416.852</ele>
        <time>2020-03-19T22:24:24Z</time>
      </trkpt>
      <trkpt lat="42.29254" lon="8.88237">
        <ele>1422.345</ele>
        <time>2020-03-19T22:24:44Z</time>
      </trkpt>
      <trkpt lat="42.29222" lon="8.88255">
        <ele>1419.441</ele>
        <time>2020-03-19T22:25:04Z</time>
      </trkpt>
      <trkpt lat="42.29192" lon="8.88262">
        <ele>1417.887</ele>
        <time>2020-03-19T22:25:24Z</time>
      </trkpt>
      <trkpt lat="42.29189" lon="8.88291">
        <ele>1414.642</ele>
        <time>2020-03-19T22:25:44Z</time>
      </trkpt>
      <trkpt lat="42.29164" lon="8.88299">
        <ele>1412.126</ele>
        <time>2020-03-19T22:26:04Z</time>
      </trkpt>
      <trkpt lat="42.29151" lon="8.88308">
        <ele>1411.208</ele>
        <time>2020-03-19T22:26:24Z</time>
      </trkpt>
      <trkpt lat="42.29108" lon="8.88294">
        <ele>1412.742</ele>
        <time>2020-03-19T22:26:44Z</time>
      </trkpt>
      <trkpt lat="42.29076" lon="8.88268">
        <ele>1417.555</ele>
        <time>2020-03-19T22:27:04Z</time>
      </trkpt>
      <trkpt lat="42.29009" lon="8.88402">
        <ele>1420.037</ele>
        <time>2020-03-19T22:27:24Z</time>
      </trkpt>
      <trkpt lat="42.28957" lon="8.88471">
        <ele>1419.455</ele>
        <time>2020-03-19T22:27:44Z</time>
      </trkpt>
      <trkpt lat="42.28914" lon="8.8856">
        <ele>1413.919</ele>
        <time>2020-03-19T22:28:04Z</time>
      </trkpt>
      <trkpt lat="42.28891" lon="8.88581">
        <ele>1415.113</ele>
        <time>2020-03-19T22:28:24Z</time>
      </trkpt>
      <trkpt lat="42.2889" lon="8.88617">
        <ele>1411.546</ele>
        <time>2020-03-19T22:28:44Z</time>
      </trkpt>
      <trkpt lat="42.28914" lon="8.88668">
        <ele>1412.812</ele>
        <time>2020-03-19T22:29:04Z</time>
      </trkpt>
      <trkpt lat="42.28909" lon="8.88721">
        <ele>1421.951</ele>
        <time>2020-03-19T22:29:24Z</time>
      </trkpt>
      <trkpt lat="42.28882" lon="8.88804">
        <ele>1423.001</ele>
        <time>2020-03-19T22:29:44Z</time>
      </trkpt>
      <trkpt lat="42.28861" lon="8.88914">
        <ele>1423.011</ele>
        <time>2020-03-19T22:30:04Z</time>
      </trkpt>
      <trkpt lat="42.28812" lon="8.89002">
        <ele>1422.508</ele>
        <time>2020-03-19T22:30:24Z</time>
      </trkpt>
      <trkpt lat="42.28777" lon="8.89133">
        <ele>1420.219</ele>
        <time>2020-03-19T22:30:44Z</time>
      </trkpt>
      <trkpt lat="42.28773" lon="8.89161">
        <ele>1417.772</ele>
        <time>2020-03-19T22:31:04Z</time>
      </trkpt>
      <trkpt lat="42.28758" lon="8.89181">
        <ele>1416.634</ele>
        <time>2020-03-19T22:31:24Z</time>
      </trkpt>
      <trkpt lat="42.28739" lon="8.89184">
        <ele>1415.212</ele>
        <time>2020-03-19T22:31:44Z</time>
      </trkpt>
      <trkpt lat="42.28701" lon="8.8917">
        <ele>1414.956</ele>
        <time>2020-03-19T22:32:04Z</time>
      </trkpt>
      <trkpt lat="42.28678" lon="8.89174">
        <ele>1416.38</ele>
        <time>2020-03-19T22:32:24Z</time>
      </trkpt>
      <trkpt lat="42.28663" lon="8.89196">
        <ele>1416.153</ele>
        <time>2020-03-19T22:32:44Z</time>
      </trkpt>
      <trkpt lat="42.28657" lon="8.89232">
        <ele>1413.169</ele>
        <time>2020-03-19T22:33:04Z</time>
      </trkpt>
      <trkpt lat="42.28643" lon="8.89431">
        <ele>1404.484</ele>
        <time>2020-03-19T22:33:24Z</time>
      </trkpt>
      <trkpt lat="42.28603" lon="8.89453">
        <ele>1408.007</ele>
        <time>2020-03-19T22:33:44Z</time>
      </trkpt>
      <trkpt lat="42.28567" lon="8.89427">
        <ele>1403.017</ele>
        <time>2020-03-19T22:34:04Z</time>
      </trkpt>
      <trkpt lat="42.28535" lon="8.89448">
        <ele>1395.808</ele>
        <time>2020-03-19T22:34:24Z</time>
      </trkpt>
      <trkpt lat="42.28514" lon="8.89429">
        <ele>1391.622</ele>
        <time>2020-03-19T22:34:44Z</time>
      </trkpt>
      <trkpt lat="42.2848" lon="8.89438">
        <ele>1383.355</ele>
        <time>2020-03-19T22:35:04Z</time>
      </trkpt>
      <trkpt lat="42.28435" lon="8.89417">
        <ele>1377.497</ele>
        <time>2020-03-19T22:35:24Z</time>
      </trkpt>
      <trkpt lat="42.28348" lon="8.89471">
        <ele>1353.295</ele>
        <time>2020-03-19T22:35:44Z</time>
      </trkpt>
      <trkpt lat="42.28312" lon="8.89458">
        <ele>1338.649</ele>
        <time>2020-03-19T22:36:04Z</time>
      </trkpt>
      <trkpt lat="42.28291" lon="8.89403">
        <ele>1336.533</ele>
        <time>2020-03-19T22:36:24Z</time>
      </trkpt>
      <trkpt lat="42.28288" lon="8.893">
        <ele>1340.156</ele>
        <time>2020-03-19T22:36:44Z</time>
      </trkpt>
      <trkpt lat="42.28313" lon="8.89272">
        <ele>1353.372</ele>
        <time>2020-03-19T22:37:04Z</time>
      </trkpt>
      <trkpt lat="42.28314" lon="8.89248">
        <ele>1356.831</ele>
        <time>2020-03-19T22:37:24Z</time>
      </trkpt>
      <trkpt lat="42.28278" lon="8.89211">
        <ele>1353.961</ele>
        <time>2020-03-19T22:37:44Z</time>
      </trkpt>
      <trkpt lat="42.28247" lon="8.89155">
        <ele>1365.007</ele>
        <time>2020-03-19T22:38:04Z</time>
      </trkpt>
      <trkpt lat="42.28206" lon="8.89174">
        <ele>1349.908</ele>
        <time>2020-03-19T22:38:24Z</time>
      </trkpt>
      <trkpt lat="42.2815" lon="8.89077">
        <ele>1359.837</ele>
        <time>2020-03-19T22:38:44Z</time>
      </trkpt>
      <trkpt lat="42.28114" lon="8.89075">
        <ele>1357.94</ele>
        <time>2020-03-19T22:39:04Z</time>
      </trkpt>
      <trkpt lat="42.28063" lon="8.89042">
        <ele>1352.152</ele>
        <time>2020-03-19T22:39:24Z</time>
      </trkpt>
      <trkpt lat="42.28024" lon="8.89025">
        <ele>1347.87</ele>
        <time>2020-03-19T22:39:44Z</time>
      </trkpt>
      <trkpt lat="42.2799" lon="8.89002">
        <ele>1346.474</ele>
        <time>2020-03-19T22:40:04Z</time>
      </trkpt>
      <trkpt lat="42.27963" lon="8.88964">
        <ele>1353.788</ele>
        <time>2020-03-19T22:40:24Z</time>
      </trkpt>
      <trkpt lat="42.27944" lon="8.88911">
        <ele>1366.511</ele>
        <time>2020-03-19T22:40:44Z</time>
      </trkpt>
      <trkpt lat="42.27901" lon="8.88903">
        <ele>1366.667</ele>
        <time>2020-03-19T22:41:04Z</time>
      </trkpt>
      <trkpt lat="42.27856" lon="8.88932">
        <ele>1362.453</ele>
        <time>2020-03-19T22:41:24Z</time>
      </trkpt>
      <trkpt lat="42.27822" lon="8.88937">
        <ele>1358.704</ele>
        <time>2020-03-19T22:41:44Z</time>
      </trkpt>
      <trkpt lat="42.278" lon="8.88955">
        <ele>1350.614</ele>
        <time>2020-03-19T22:42:04Z</time>
      </trkpt>
      <trkpt lat="42.27758" lon="8.88941">
        <ele>1355.008</ele>
        <time>2020-03-19T22:42:24Z</time>
      </trkpt>
      <trkpt lat="42.27714" lon="8.89042">
        <ele>1345.689</ele>
        <time>2020-03-19T22:42:44Z</time>
      </trkpt>
      <trkpt lat="42.27649" lon="8.89028">
        <ele>1353.922</ele>
        <time>2020-03-19T22:43:04Z</time>
      </trkpt>
      <trkpt lat="42.27606" lon="8.89011">
        <ele>1364.264</ele>
        <time>2020-03-19T22:43:24Z</time>
      </trkpt>
      <trkpt lat="42.27558" lon="8.89073">
        <ele>1349.862</ele>
        <time>2020-03-19T22:43:44Z</time>
      </trkpt>
      <trkpt lat="42.27538" lon="8.8908">
        <ele>1354.356</ele>
        <time>2020-03-19T22:44:04Z</time>
      </trkpt>
      <trkpt lat="42.27516" lon="8.89169">
        <ele>1351.91</ele>
        <time>2020-03-19T22:44:24Z</time>
      </trkpt>
      <trkpt lat="42.2754" lon="8.8927">
        <ele>1340.723</ele>
        <time>2020-03-19T22:44:44Z</time>
      </trkpt>
      <trkpt lat="42.27521" lon="8.89316">
        <ele>1350.219</ele>
        <time>2020-03-19T22:45:04Z</time>
      </trkpt>
      <trkpt lat="42.27486" lon="8.89338">
        <ele>1356.624</ele>
        <time>2020-03-19T22:45:24Z</time>
      </trkpt>
      <trkpt lat="42.27351" lon="8.89373">
        <ele>1365.204</ele>
        <time>2020-03-19T22:45:44Z</time>
      </trkpt>
      <trkpt lat="42.27313" lon="8.89387">
        <ele>1359.114</ele>
        <time>2020-03-19T22:46:04Z</time>
      </trkpt>
      <trkpt lat="42.27297" lon="8.89422">
        <ele>1348.008</ele>
        <time>2020-03-19T22:46:24Z</time>
      </trkpt>
      <trkpt lat="42.27253" lon="8.89431">
        <ele>1349.286</ele>
        <time>2020-03-19T22:46:44Z</time>
      </trkpt>
      <trkpt lat="42.27253" lon="8.89465">
        <ele>1340.529</ele>
        <time>2020-03-19T22:47:04Z</time>
      </trkpt>
      <trkpt lat="42.27228" lon="8.89471">
        <ele>1339.441</ele>
        <time>2020-03-19T22:47:24Z</time>
      </trkpt>
      <trkpt lat="42.2719" lon="8.89445">
        <ele>1339.619</ele>
        <time>2020-03-19T22:47:44Z</time>
      </trkpt>
      <trkpt lat="42.27161" lon="8.89375">
        <ele>1348.383</ele>
        <time>2020-03-19T22:48:04Z</time>
      </trkpt>
      <trkpt lat="42.2713" lon="8.89314">
        <ele>1347.677</ele>
        <time>2020-03-19T22:48:24Z</time>
      </trkpt>
      <trkpt lat="42.27077" lon="8.8914">
        <ele>1354.81</ele>
        <time>2020-03-19T22:48:44Z</time>
      </trkpt>
      <trkpt lat="42.27063" lon="8.89082">
        <ele>1360.486</ele>
        <time>2020-03-19T22:49:04Z</time>
      </trkpt>
      <trkpt lat="42.27005" lon="8.89079">
        <ele>1369.523</ele>
        <time>2020-03-19T22:49:24Z</time>
      </trkpt>
      <trkpt lat="42.26985" lon="8.89101">
        <ele>1372.083</ele>
        <time>2020-03-19T22:49:44Z</time>
      </trkpt>
      <trkpt lat="42.2697" lon="8.89136">
        <ele>1366.811</ele>
        <time>2020-03-19T22:50:04Z</time>
      </trkpt>
      <trkpt lat="42.26945" lon="8.8915">
        <ele>1374.608</ele>
        <time>2020-03-19T22:50:24Z</time>
      </trkpt>
      <trkpt lat="42.26942" lon="8.89199">
        <ele>1363.296</ele>
        <time>2020-03-19T22:50:44Z</time>
      </trkpt>
      <trkpt lat="42.26908" lon="8.89324">
        <ele>1356.679</ele>
        <time>2020-03-19T22:51:04Z</time>
      </trkpt>
      <trkpt lat="42.26876" lon="8.89368">
        <ele>1357.751</ele>
        <time>2020-03-19T22:51:24Z</time>
      </trkpt>
      <trkpt lat="42.26817" lon="8.89342">
        <ele>1373.969</ele>
        <time>2020-03-19T22:51:44Z</time>
      </trkpt>
      <trkpt lat="42.26771" lon="8.89337">
        <ele>1372.333</ele>
        <time>2020-03-19T22:52:04Z</time>
      </trkpt>
      <trkpt lat="42.26739" lon="8.89303">
        <ele>1382.787</ele>
        <time>2020-03-19T22:52:24Z</time>
      </trkpt>
      <trkpt lat="42.26719" lon="8.89371">
        <ele>1364.23</ele>
        <time>2020-03-19T22:52:44Z</time>
      </trkpt>
      <trkpt lat="42.26703" lon="8.89382">
        <ele>1360.496</ele>
        <time>2020-03-19T22:53:04Z</time>
      </trkpt>
      <trkpt lat="42.26669" lon="8.89347">
        <ele>1375.124</ele>
        <time>2020-03-19T22:53:24Z</time>
      </trkpt>
      <trkpt lat="42.26621" lon="8.89389">
        <ele>1365.304</ele>
        <time>2020-03-19T22:53:44Z</time>
      </trkpt>
      <trkpt lat="42.26561" lon="8.89373">
        <ele>1378.514</ele>
        <time>2020-03-19T22:54:04Z</time>
      </trkpt>
      <trkpt lat="42.26537" lon="8.89378">
        <ele>1379.908</ele>
        <time>2020-03-19T22:54:24Z</time>
      </trkpt>
      <trkpt lat="42.26516" lon="8.89368">
        <ele>1386.966</ele>
        <time>2020-03-19T22:54:44Z</time>
      </trkpt>
      <trkpt lat="42.26502" lon="8.89387">
        <ele>1385.839</ele>
        <time>2020-03-19T22:55:04Z</time>
      </trkpt>
      <trkpt lat="42.26506" lon="8.89429">
        <ele>1377.341</ele>
        <time>2020-03-19T22:55:24Z</time>
      </trkpt>
      <trkpt lat="42.26518" lon="8.89471">
        <ele>1368.699</ele>
        <time>2020-03-19T22:55:44Z</time>
      </trkpt>
      <trkpt lat="42.26522" lon="8.8956">
        <ele>1364.253</ele>
        <time>2020-03-19T22:56:04Z</time>
      </trkpt>
      <trkpt lat="42.2651" lon="8.89596">
        <ele>1365.887</ele>
        <time>2020-03-19T22:56:24Z</time>
      </trkpt>
      <trkpt lat="42.26509" lon="8.89564">
        <ele>1370.65</ele>
        <time>2020-03-19T22:56:44Z</time>
      </trkpt>
      <trkpt lat="42.26499" lon="8.89576">
        <ele>1374.496</ele>
        <time>2020-03-19T22:57:04Z</time>
      </trkpt>
      <trkpt lat="42.26499" lon="8.89536">
        <ele>1379.694</ele>
        <time>2020-03-19T22:57:24Z</time>
      </trkpt>
      <trkpt lat="42.26487" lon="8.8952">
        <ele>1385.457</ele>
        <time>2020-03-19T22:57:44Z</time>
      </trkpt>
      <trkpt lat="42.26456" lon="8.89526">
        <ele>1394.822</ele>
        <time>2020-03-19T22:58:04Z</time>
      </trkpt>
      <trkpt lat="42.2645" lon="8.89492">
        <ele>1399.608</ele>
        <time>2020-03-19T22:58:24Z</time>
      </trkpt>
      <trkpt lat="42.26428" lon="8.89498">
        <ele>1406.883</ele>
        <time>2020-03-19T22:58:44Z</time>
      </trkpt>
      <trkpt lat="42.26419" lon="8.89466">
        <ele>1413.116</ele>
        <time>2020-03-19T22:59:04Z</time>
      </trkpt>
      <trkpt lat="42.26395" lon="8.8948">
        <ele>1426.678</ele>
        <time>2020-03-19T22:59:24Z</time>
      </trkpt>
      <trkpt lat="42.26391" lon="8.89458">
        <ele>1431.966</ele>
        <time>2020-03-19T22:59:44Z</time>
      </trkpt>
      <trkpt lat="42.26363" lon="8.89492">
        <ele>1446.63</ele>
        <time>2020-03-19T23:00:04Z</time>
      </trkpt>
      <trkpt lat="42.26351" lon="8.89407">
        <ele>1454.214</ele>
        <time>2020-03-19T23:00:24Z</time>
      </trkpt>
      <trkpt lat="42.26348" lon="8.89339">
        <ele>1450.587</ele>
        <time>2020-03-19T23:00:44Z</time>
      </trkpt>
      <trkpt lat="42.26332" lon="8.89295">
        <ele>1452.293</ele>
        <time>2020-03-19T23:01:04Z</time>
      </trkpt>
      <trkpt lat="42.26314" lon="8.89335">
        <ele>1458.592</ele>
        <time>2020-03-19T23:01:24Z</time>
      </trkpt>
      <trkpt lat="42.26289" lon="8.89361">
        <ele>1467.173</ele>
        <time>2020-03-19T23:01:44Z</time>
      </trkpt>
      <trkpt lat="42.2629" lon="8.89403">
        <ele>1473.92</ele>
        <time>2020-03-19T23:02:04Z</time>
      </trkpt>
      <trkpt lat="42.26271" lon="8.89397">
        <ele>1476.108</ele>
        <time>2020-03-19T23:02:24Z</time>
      </trkpt>
      <trkpt lat="42.26272" lon="8.89439">
        <ele>1479.823</ele>
        <time>2020-03-19T23:02:44Z</time>
      </trkpt>
      <trkpt lat="42.26225" lon="8.8947">
        <ele>1489.326</ele>
        <time>2020-03-19T23:03:04Z</time>
      </trkpt>
      <trkpt lat="42.26223" lon="8.89502">
        <ele>1491.618</ele>
        <time>2020-03-19T23:03:24Z</time>
      </trkpt>
      <trkpt lat="42.26192" lon="8.89484">
        <ele>1498.086</ele>
        <time>2020-03-19T23:03:44Z</time>
      </trkpt>
      <trkpt lat="42.26173" lon="8.89504">
        <ele>1506.51</ele>
        <time>2020-03-19T23:04:04Z</time>
      </trkpt>
      <trkpt lat="42.26167" lon="8.89528">
        <ele>1508.974</ele>
        <time>2020-03-19T23:04:24Z</time>
      </trkpt>
      <trkpt lat="42.26089" lon="8.89512">
        <ele>1518.827</ele>
        <time>2020-03-19T23:04:44Z</time>
      </trkpt>
      <trkpt lat="42.26114" lon="8.89564">
        <ele>1522.323</ele>
        <time>2020-03-19T23:05:04Z</time>
      </trkpt>
      <trkpt lat="42.26071" lon="8.89546">
        <ele>1529.483</ele>
        <time>2020-03-19T23:05:24Z</time>
      </trkpt>
      <trkpt lat="42.26087" lon="8.89575">
        <ele>1529.025</ele>
        <time>2020-03-19T23:05:44Z</time>
      </trkpt>
      <trkpt lat="42.26062" lon="8.89562">
        <ele>1535.117</ele>
        <time>2020-03-19T23:06:04Z</time>
      </trkpt>
      <trkpt lat="42.26073" lon="8.89595">
        <ele>1537.208</ele>
        <time>2020-03-19T23:06:24Z</time>
      </trkpt>
      <trkpt lat="42.26031" lon="8.8959">
        <ele>1546.582</ele>
        <time>2020-03-19T23:06:44Z</time>
      </trkpt>
      <trkpt lat="42.2604" lon="8.89636">
        <ele>1552.645</ele>
        <time>2020-03-19T23:07:04Z</time>
      </trkpt>
      <trkpt lat="42.25988" lon="8.89681">
        <ele>1565.077</ele>
        <time>2020-03-19T23:07:24Z</time>
      </trkpt>
      <trkpt lat="42.26009" lon="8.89695">
        <ele>1567.585</ele>
        <time>2020-03-19T23:07:44Z</time>
      </trkpt>
      <trkpt lat="42.26014" lon="8.89709">
        <ele>1567.799</ele>
        <time>2020-03-19T23:08:04Z</time>
      </trkpt>
      <trkpt lat="42.25994" lon="8.89714">
        <ele>1572.393</ele>
        <time>2020-03-19T23:08:24Z</time>
      </trkpt>
      <trkpt lat="42.25996" lon="8.89735">
        <ele>1576.116</ele>
        <time>2020-03-19T23:08:44Z</time>
      </trkpt>
      <trkpt lat="42.25987" lon="8.89754">
        <ele>1579.292</ele>
        <time>2020-03-19T23:09:04Z</time>
      </trkpt>
      <trkpt lat="42.2597" lon="8.89763">
        <ele>1580.566</ele>
        <time>2020-03-19T23:09:24Z</time>
      </trkpt>
      <trkpt lat="42.25957" lon="8.898">
        <ele>1587.229</ele>
        <time>2020-03-19T23:09:44Z</time>
      </trkpt>
      <trkpt lat="42.25929" lon="8.89821">
        <ele>1588.621</ele>
        <time>2020-03-19T23:10:04Z</time>
      </trkpt>
      <trkpt lat="42.25933" lon="8.89855">
        <ele>1593.908</ele>
        <time>2020-03-19T23:10:24Z</time>
      </trkpt>
      <trkpt lat="42.25895" lon="8.89942">
        <ele>1606.22</ele>
        <time>2020-03-19T23:10:44Z</time>
      </trkpt>
      <trkpt lat="42.25884" lon="8.89942">
        <ele>1608.333</ele>
        <time>2020-03-19T23:11:04Z</time>
      </trkpt>
      <trkpt lat="42.25879" lon="8.89973">
        <ele>1615.045</ele>
        <time>2020-03-19T23:11:24Z</time>
      </trkpt>
      <trkpt lat="42.2582" lon="8.90128">
        <ele>1642.363</ele>
        <time>2020-03-19T23:11:44Z</time>
      </trkpt>
      <trkpt lat="42.25805" lon="8.90228">
        <ele>1639.057</ele>
        <time>2020-03-19T23:12:04Z</time>
      </trkpt>
      <trkpt lat="42.25742" lon="8.90259">
        <ele>1660.771</ele>
        <time>2020-03-19T23:12:24Z</time>
      </trkpt>
      <trkpt lat="42.25711" lon="8.90295">
        <ele>1660.754</ele>
        <time>2020-03-19T23:12:44Z</time>
      </trkpt>
      <trkpt lat="42.25704" lon="8.9032">
        <ele>1653.62</ele>
        <time>2020-03-19T23:13:04Z</time>
      </trkpt>
      <trkpt lat="42.25653" lon="8.9036">
        <ele>1659.811</ele>
        <time>2020-03-19T23:13:24Z</time>
      </trkpt>
      <trkpt lat="42.25613" lon="8.90416">
        <ele>1671.721</ele>
        <time>2020-03-19T23:13:44Z</time>
      </trkpt>
      <trkpt lat="42.25605" lon="8.90484">
        <ele>1670.103</ele>
        <time>2020-03-19T23:14:04Z</time>
      </trkpt>
      <trkpt lat="42.25592" lon="8.90515">
        <ele>1680.008</ele>
        <time>2020-03-19T23:14:24Z</time>
      </trkpt>
      <trkpt lat="42.256" lon="8.90575">
        <ele>1683.435</ele>
        <time>2020-03-19T23:14:44Z</time>
      </trkpt>
      <trkpt lat="42.25591" lon="8.90624">
        <ele>1691.488</ele>
        <time>2020-03-19T23:15:04Z</time>
      </trkpt>
      <trkpt lat="42.25593" lon="8.90654">
        <ele>1695.59</ele>
        <time>2020-03-19T23:15:24Z</time>
      </trkpt>
      <trkpt lat="42.25578" lon="8.90627">
        <ele>1696.718</ele>
        <time>2020-03-19T23:15:44Z</time>
      </trkpt>
      <trkpt lat="42.25574" lon="8.90595">
        <ele>1696.072</ele>
        <time>2020-03-19T23:16:04Z</time>
      </trkpt>
      <trkpt lat="42.25562" lon="8.90592">
        <ele>1700.956</ele>
        <time>2020-03-19T23:16:24Z</time>
      </trkpt>
      <trkpt lat="42.25556" lon="8.90643">
        <ele>1705.779</ele>
        <time>2020-03-19T23:16:44Z</time>
      </trkpt>
      <trkpt lat="42.25587" lon="8.90704">
        <ele>1704.365</ele>
        <time>2020-03-19T23:17:04Z</time>
      </trkpt>
      <trkpt lat="42.25591" lon="8.90742">
        <ele>1705.694</ele>
        <time>2020-03-19T23:17:24Z</time>
      </trkpt>
      <trkpt lat="42.25572" lon="8.90716">
        <ele>1711.457</ele>
        <time>2020-03-19T23:17:44Z</time>
      </trkpt>
      <trkpt lat="42.25539" lon="8.90694">
        <ele>1722.822</ele>
        <time>2020-03-19T23:18:04Z</time>
      </trkpt>
      <trkpt lat="42.25526" lon="8.90674">
        <ele>1723.908</ele>
        <time>2020-03-19T23:18:24Z</time>
      </trkpt>
      <trkpt lat="42.25512" lon="8.90674">
        <ele>1732.213</ele>
        <time>2020-03-19T23:18:44Z</time>
      </trkpt>
      <trkpt lat="42.25541" lon="8.9074">
        <ele>1729.216</ele>
        <time>2020-03-19T23:19:04Z</time>
      </trkpt>
      <trkpt lat="42.25547" lon="8.90779">
        <ele>1731.298</ele>
        <time>2020-03-19T23:19:24Z</time>
      </trkpt>
      <trkpt lat="42.25508" lon="8.90736">
        <ele>1746.316</ele>
        <time>2020-03-19T23:19:44Z</time>
      </trkpt>
      <trkpt lat="42.25519" lon="8.9081">
        <ele>1753.13</ele>
        <time>2020-03-19T23:20:04Z</time>
      </trkpt>
      <trkpt lat="42.25514" lon="8.90852">
        <ele>1759.324</ele>
        <time>2020-03-19T23:20:24Z</time>
      </trkpt>
      <trkpt lat="42.25497" lon="8.90921">
        <ele>1756.287</ele>
        <time>2020-03-19T23:20:44Z</time>
      </trkpt>
      <trkpt lat="42.25501" lon="8.90946">
        <ele>1754.863</ele>
        <time>2020-03-19T23:21:04Z</time>
      </trkpt>
      <trkpt lat="42.255" lon="8.90982">
        <ele>1758.785</ele>
        <time>2020-03-19T23:21:24Z</time>
      </trkpt>
      <trkpt lat="42.25532" lon="8.91038">
        <ele>1757.689</ele>
        <time>2020-03-19T23:21:44Z</time>
      </trkpt>
      <trkpt lat="42.25546" lon="8.91091">
        <ele>1764.817</ele>
        <time>2020-03-19T23:22:04Z</time>
      </trkpt>
      <trkpt lat="42.25542" lon="8.91147">
        <ele>1766.508</ele>
        <time>2020-03-19T23:22:24Z</time>
      </trkpt>
      <trkpt lat="42.25518" lon="8.91281">
        <ele>1771.462</ele>
        <time>2020-03-19T23:22:44Z</time>
      </trkpt>
      <trkpt lat="42.25513" lon="8.91378">
        <ele>1774.655</ele>
        <time>2020-03-19T23:23:04Z</time>
      </trkpt>
      <trkpt lat="42.2554" lon="8.91571">
        <ele>1793.487</ele>
        <time>2020-03-19T23:23:24Z</time>
      </trkpt>
      <trkpt lat="42.25538" lon="8.91592">
        <ele>1793.375</ele>
        <time>2020-03-19T23:23:44Z</time>
      </trkpt>
      <trkpt lat="42.25525" lon="8.9158">
        <ele>1794.389</ele>
        <time>2020-03-19T23:24:04Z</time>
      </trkpt>
      <trkpt lat="42.25536" lon="8.91678">
        <ele>1793.973</ele>
        <time>2020-03-19T23:24:24Z</time>
      </trkpt>
      <trkpt lat="42.25533" lon="8.9175">
        <ele>1801.346</ele>
        <time>2020-03-19T23:24:44Z</time>
      </trkpt>
      <trkpt lat="42.25541" lon="8.91741">
        <ele>1802.412</ele>
        <time>2020-03-19T23:25:04Z</time>
      </trkpt>
      <trkpt lat="42.25539" lon="8.91778">
        <ele>1805.591</ele>
        <time>2020-03-19T23:25:24Z</time>
      </trkpt>
      <trkpt lat="42.2556" lon="8.91754">
        <ele>1807.281</ele>
        <time>2020-03-19T23:25:44Z</time>
      </trkpt>
      <trkpt lat="42.25545" lon="8.91807">
        <ele>1813.019</ele>
        <time>2020-03-19T23:26:04Z</time>
      </trkpt>
      <trkpt lat="42.25564" lon="8.91801">
        <ele>1817.408</ele>
        <time>2020-03-19T23:26:24Z</time>
      </trkpt>
      <trkpt lat="42.25575" lon="8.91807">
        <ele>1819.733</ele>
        <time>2020-03-19T23:26:44Z</time>
      </trkpt>
      <trkpt lat="42.25556" lon="8.9183">
        <ele>1818.866</ele>
        <time>2020-03-19T23:27:04Z</time>
      </trkpt>
      <trkpt lat="42.25558" lon="8.91877">
        <ele>1827.388</ele>
        <time>2020-03-19T23:27:24Z</time>
      </trkpt>
      <trkpt lat="42.25557" lon="8.91943">
        <ele>1832.326</ele>
        <time>2020-03-19T23:27:44Z</time>
      </trkpt>
      <trkpt lat="42.25551" lon="8.92004">
        <ele>1837.52</ele>
        <time>2020-03-19T23:28:04Z</time>
      </trkpt>
      <trkpt lat="42.2554" lon="8.92049">
        <ele>1834.394</ele>
        <time>2020-03-19T23:28:24Z</time>
      </trkpt>
      <trkpt lat="42.25535" lon="8.92091">
        <ele>1845.587</ele>
        <time>2020-03-19T23:28:44Z</time>
      </trkpt>
      <trkpt lat="42.25507" lon="8.92155">
        <ele>1843.843</ele>
        <time>2020-03-19T23:29:04Z</time>
      </trkpt>
      <trkpt lat="42.25485" lon="8.92188">
        <ele>1837.727</ele>
        <time>2020-03-19T23:29:24Z</time>
      </trkpt>
      <trkpt lat="42.25477" lon="8.92239">
        <ele>1843.468</ele>
        <time>2020-03-19T23:29:44Z</time>
      </trkpt>
      <trkpt lat="42.25452" lon="8.92317">
        <ele>1849.314</ele>
        <time>2020-03-19T23:30:04Z</time>
      </trkpt>
      <trkpt lat="42.25426" lon="8.92495">
        <ele>1871.608</ele>
        <time>2020-03-19T23:30:24Z</time>
      </trkpt>
      <trkpt lat="42.25429" lon="8.92548">
        <ele>1875.576</ele>
        <time>2020-03-19T23:30:44Z</time>
      </trkpt>
      <trkpt lat="42.25428" lon="8.92597">
        <ele>1879.379</ele>
        <time>2020-03-19T23:31:04Z</time>
      </trkpt>
      <trkpt lat="42.2544" lon="8.92676">
        <ele>1878.651</ele>
        <time>2020-03-19T23:31:24Z</time>
      </trkpt>
      <trkpt lat="42.25434" lon="8.92728">
        <ele>1874.169</ele>
        <time>2020-03-19T23:31:44Z</time>
      </trkpt>
      <trkpt lat="42.25469" lon="8.92835">
        <ele>1861.513</ele>
        <time>2020-03-19T23:32:04Z</time>
      </trkpt>
      <trkpt lat="42.25485" lon="8.93022">
        <ele>1851.547</ele>
        <time>2020-03-19T23:32:24Z</time>
      </trkpt>
      <trkpt lat="42.25478" lon="8.9316">
        <ele>1844.49</ele>
        <time>2020-03-19T23:32:44Z</time>
      </trkpt>
      <trkpt lat="42.25495" lon="8.93218">
        <ele>1843.656</ele>
        <time>2020-03-19T23:33:04Z</time>
      </trkpt>
      <trkpt lat="42.25506" lon="8.93236">
        <ele>1843.181</ele>
        <time>2020-03-19T23:33:24Z</time>
      </trkpt>
      <trkpt lat="42.25521" lon="8.93296">
        <ele>1838.161</ele>
        <time>2020-03-19T23:33:44Z</time>
      </trkpt>
      <trkpt lat="42.25534" lon="8.93314">
        <ele>1834.317</ele>
        <time>2020-03-19T23:34:04Z</time>
      </trkpt>
      <trkpt lat="42.25541" lon="8.93363">
        <ele>1826.508</ele>
        <time>2020-03-19T23:34:24Z</time>
      </trkpt>
      <trkpt lat="42.25556" lon="8.93392">
        <ele>1817.552</ele>
        <time>2020-03-19T23:34:44Z</time>
      </trkpt>
      <trkpt lat="42.25539" lon="8.93425">
        <ele>1817.325</ele>
        <time>2020-03-19T23:35:04Z</time>
      </trkpt>
      <trkpt lat="42.2556" lon="8.93437">
        <ele>1810.157</ele>
        <time>2020-03-19T23:35:24Z</time>
      </trkpt>
      <trkpt lat="42.25535" lon="8.93503">
        <ele>1807.115</ele>
        <time>2020-03-19T23:35:44Z</time>
      </trkpt>
      <trkpt lat="42.25554" lon="8.93503">
        <ele>1803.959</ele>
        <time>2020-03-19T23:36:04Z</time>
      </trkpt>
      <trkpt lat="42.25534" lon="8.93546">
        <ele>1798.913</ele>
        <time>2020-03-19T23:36:24Z</time>
      </trkpt>
      <trkpt lat="42.2555" lon="8.9355">
        <ele>1795.986</ele>
        <time>2020-03-19T23:36:44Z</time>
      </trkpt>
      <trkpt lat="42.25549" lon="8.93563">
        <ele>1793.432</ele>
        <time>2020-03-19T23:37:04Z</time>
      </trkpt>
      <trkpt lat="42.25565" lon="8.93647">
        <ele>1778.088</ele>
        <time>2020-03-19T23:37:24Z</time>
      </trkpt>
      <trkpt lat="42.25594" lon="8.93668">
        <ele>1770.724</ele>
        <time>2020-03-19T23:37:44Z</time>
      </trkpt>
      <trkpt lat="42.25594" lon="8.9368">
        <ele>1770.126</ele>
        <time>2020-03-19T23:38:04Z</time>
      </trkpt>
      <trkpt lat="42.25599" lon="8.93693">
        <ele>1768.708</ele>
        <time>2020-03-19T23:38:24Z</time>
      </trkpt>
      <trkpt lat="42.25615" lon="8.93696">
        <ele>1765.762</ele>
        <time>2020-03-19T23:38:44Z</time>
      </trkpt>
      <trkpt lat="42.25633" lon="8.93733">
        <ele>1759.025</ele>
        <time>2020-03-19T23:39:04Z</time>
      </trkpt>
      <trkpt lat="42.25654" lon="8.93739">
        <ele>1754.717</ele>
        <time>2020-03-19T23:39:24Z</time>
      </trkpt>
      <trkpt lat="42.25678" lon="8.93758">
        <ele>1749.725</ele>
        <time>2020-03-19T23:39:44Z</time>
      </trkpt>
      <trkpt lat="42.25671" lon="8.93807">
        <ele>1747.739</ele>
        <time>2020-03-19T23:40:04Z</time>
      </trkpt>
      <trkpt lat="42.25678" lon="8.93863">
        <ele>1748.083</ele>
        <time>2020-03-19T23:40:24Z</time>
      </trkpt>
      <trkpt lat="42.257" lon="8.93925">
        <ele>1748.326</ele>
        <time>2020-03-19T23:40:44Z</time>
      </trkpt>
      <trkpt lat="42.25667" lon="8.93975">
        <ele>1749.052</ele>
        <time>2020-03-19T23:41:04Z</time>
      </trkpt>
      <trkpt lat="42.25653" lon="8.94059">
        <ele>1752.369</ele>
        <time>2020-03-19T23:41:24Z</time>
      </trkpt>
      <trkpt lat="42.25641" lon="8.94075">
        <ele>1751.904</ele>
        <time>2020-03-19T23:41:44Z</time>
      </trkpt>
      <trkpt lat="42.2563" lon="8.94121">
        <ele>1751.424</ele>
        <time>2020-03-19T23:42:04Z</time>
      </trkpt>
      <trkpt lat="42.25604" lon="8.94162">
        <ele>1750.408</ele>
        <time>2020-03-19T23:42:24Z</time>
      </trkpt>
      <trkpt lat="42.25586" lon="8.94176">
        <ele>1749.91</ele>
        <time>2020-03-19T23:42:44Z</time>
      </trkpt>
      <trkpt lat="42.25555" lon="8.9421">
        <ele>1751.543</ele>
        <time>2020-03-19T23:43:04Z</time>
      </trkpt>
      <trkpt lat="42.25521" lon="8.94224">
        <ele>1750.875</ele>
        <time>2020-03-19T23:43:24Z</time>
      </trkpt>
      <trkpt lat="42.25503" lon="8.94248">
        <ele>1750.223</ele>
        <time>2020-03-19T23:43:44Z</time>
      </trkpt>
      <trkpt lat="42.2546" lon="8.94269">
        <ele>1750.167</ele>
        <time>2020-03-19T23:44:04Z</time>
      </trkpt>
      <trkpt lat="42.25449" lon="8.94293">
        <ele>1751.051</ele>
        <time>2020-03-19T23:44:24Z</time>
      </trkpt>
      <trkpt lat="42.25433" lon="8.94313">
        <ele>1750.664</ele>
        <time>2020-03-19T23:44:44Z</time>
      </trkpt>
      <trkpt lat="42.25415" lon="8.94374">
        <ele>1749.46</ele>
        <time>2020-03-19T23:45:04Z</time>
      </trkpt>
      <trkpt lat="42.25396" lon="8.94397">
        <ele>1748.386</ele>
        <time>2020-03-19T23:45:24Z</time>
      </trkpt>
      <trkpt lat="42.2536" lon="8.94486">
        <ele>1749.96</ele>
        <time>2020-03-19T23:45:44Z</time>
      </trkpt>
      <trkpt lat="42.25354" lon="8.94533">
        <ele>1751.426</ele>
        <time>2020-03-19T23:46:04Z</time>
      </trkpt>
      <trkpt lat="42.25333" lon="8.9458">
        <ele>1753.408</ele>
        <time>2020-03-19T23:46:24Z</time>
      </trkpt>
      <trkpt lat="42.25305" lon="8.94602">
        <ele>1750.382</ele>
        <time>2020-03-19T23:46:44Z</time>
      </trkpt>
      <trkpt lat="42.25293" lon="8.94634">
        <ele>1748.735</ele>
        <time>2020-03-19T23:47:04Z</time>
      </trkpt>
      <trkpt lat="42.2529" lon="8.94654">
        <ele>1748.887</ele>
        <time>2020-03-19T23:47:24Z</time>
      </trkpt>
      <trkpt lat="42.2527" lon="8.94687">
        <ele>1747.185</ele>
        <time>2020-03-19T23:47:44Z</time>
      </trkpt>
      <trkpt lat="42.25251" lon="8.94784">
        <ele>1748.919</ele>
        <time>2020-03-19T23:48:04Z</time>
      </trkpt>
      <trkpt lat="42.25259" lon="8.94894">
        <ele>1744.743</ele>
        <time>2020-03-19T23:48:24Z</time>
      </trkpt>
      <trkpt lat="42.25277" lon="8.94956">
        <ele>1746.416</ele>
        <time>2020-03-19T23:48:44Z</time>
      </trkpt>
      <trkpt lat="42.25297" lon="8.94991">
        <ele>1748.662</ele>
        <time>2020-03-19T23:49:04Z</time>
      </trkpt>
      <trkpt lat="42.25304" lon="8.95072">
        <ele>1747.871</ele>
        <time>2020-03-19T23:49:24Z</time>
      </trkpt>
      <trkpt lat="42.25326" lon="8.95124">
        <ele>1746.541</ele>
        <time>2020-03-19T23:49:44Z</time>
      </trkpt>
      <trkpt lat="42.25324" lon="8.95198">
        <ele>1745.915</ele>
        <time>2020-03-19T23:50:04Z</time>
      </trkpt>
      <trkpt lat="42.25331" lon="8.95212">
        <ele>1746.108</ele>
        <time>2020-03-19T23:50:24Z</time>
      </trkpt>
      <trkpt lat="42.25328" lon="8.95292">
        <ele>1746.021</ele>
        <time>2020-03-19T23:50:44Z</time>
      </trkpt>
      <trkpt lat="42.25338" lon="8.95331">
        <ele>1744.944</ele>
        <time>2020-03-19T23:51:04Z</time>
      </trkpt>
      <trkpt lat="42.25363" lon="8.95388">
        <ele>1745.436</ele>
        <time>2020-03-19T23:51:24Z</time>
      </trkpt>
      <trkpt lat="42.25392" lon="8.95436">
        <ele>1744.474</ele>
        <time>2020-03-19T23:51:44Z</time>
      </trkpt>
      <trkpt lat="42.25404" lon="8.95475">
        <ele>1744.038</ele>
        <time>2020-03-19T23:52:04Z</time>
      </trkpt>
      <trkpt lat="42.2542" lon="8.95505">
        <ele>1745.912</ele>
        <time>2020-03-19T23:52:24Z</time>
      </trkpt>
      <trkpt lat="42.25458" lon="8.95589">
        <ele>1748.885</ele>
        <time>2020-03-19T23:52:44Z</time>
      </trkpt>
      <trkpt lat="42.25504" lon="8.95649">
        <ele>1749.611</ele>
        <time>2020-03-19T23:53:04Z</time>
      </trkpt>
      <trkpt lat="42.25537" lon="8.95676">
        <ele>1748.751</ele>
        <time>2020-03-19T23:53:24Z</time>
      </trkpt>
      <trkpt lat="42.25561" lon="8.95713">
        <ele>1745.701</ele>
        <time>2020-03-19T23:53:44Z</time>
      </trkpt>
      <trkpt lat="42.25582" lon="8.95734">
        <ele>1747.911</ele>
        <time>2020-03-19T23:54:04Z</time>
      </trkpt>
      <trkpt lat="42.2561" lon="8.95769">
        <ele>1752.708</ele>
        <time>2020-03-19T23:54:24Z</time>
      </trkpt>
      <trkpt lat="42.25603" lon="8.95837">
        <ele>1749.889</ele>
        <time>2020-03-19T23:54:44Z</time>
      </trkpt>
      <trkpt lat="42.25581" lon="8.9587">
        <ele>1748.192</ele>
        <time>2020-03-19T23:55:04Z</time>
      </trkpt>
      <trkpt lat="42.25565" lon="8.95878">
        <ele>1747.384</ele>
        <time>2020-03-19T23:55:24Z</time>
      </trkpt>
      <trkpt lat="42.25553" lon="8.95866">
        <ele>1745.922</ele>
        <time>2020-03-19T23:55:44Z</time>
      </trkpt>
      <trkpt lat="42.25528" lon="8.95849">
        <ele>1742.266</ele>
        <time>2020-03-19T23:56:04Z</time>
      </trkpt>
      <trkpt lat="42.25489" lon="8.95805">
        <ele>1735.27</ele>
        <time>2020-03-19T23:56:24Z</time>
      </trkpt>
      <trkpt lat="42.25483" lon="8.95785">
        <ele>1735.133</ele>
        <time>2020-03-19T23:56:44Z</time>
      </trkpt>
      <trkpt lat="42.25465" lon="8.95764">
        <ele>1734.089</ele>
        <time>2020-03-19T23:57:04Z</time>
      </trkpt>
      <trkpt lat="42.25447" lon="8.95767">
        <ele>1734.086</ele>
        <time>2020-03-19T23:57:24Z</time>
      </trkpt>
      <trkpt lat="42.2543" lon="8.95763">
        <ele>1733.26</ele>
        <time>2020-03-19T23:57:44Z</time>
      </trkpt>
      <trkpt lat="42.25413" lon="8.95767">
        <ele>1732.226</ele>
        <time>2020-03-19T23:58:04Z</time>
      </trkpt>
      <trkpt lat="42.25395" lon="8.95748">
        <ele>1732.308</ele>
        <time>2020-03-19T23:58:24Z</time>
      </trkpt>
      <trkpt lat="42.2538" lon="8.95757">
        <ele>1730.972</ele>
        <time>2020-03-19T23:58:44Z</time>
      </trkpt>
      <trkpt lat="42.2537" lon="8.95756">
        <ele>1730.455</ele>
        <time>2020-03-19T23:59:04Z</time>
      </trkpt>
      <trkpt lat="42.25321" lon="8.95801">
        <ele>1732.097</ele>
        <time>2020-03-19T23:59:24Z</time>
      </trkpt>
      <trkpt lat="42.25301" lon="8.95838">
        <ele>1729.985</ele>
        <time>2020-03-19T23:59:44Z</time>
      </trkpt>
      <trkpt lat="42.2528" lon="8.95869">
        <ele>1727.669</ele>
        <time>2020-03-20T00:00:04Z</time>
      </trkpt>
      <trkpt lat="42.25273" lon="8.95894">
        <ele>1724.433</ele>
        <time>2020-03-20T00:00:24Z</time>
      </trkpt>
      <trkpt lat="42.25262" lon="8.95914">
        <ele>1726.086</ele>
        <time>2020-03-20T00:00:44Z</time>
      </trkpt>
      <trkpt lat="42.25253" lon="8.95922">
        <ele>1727.942</ele>
        <time>2020-03-20T00:01:04Z</time>
      </trkpt>
      <trkpt lat="42.25234" lon="8.95947">
        <ele>1726.573</ele>
        <time>2020-03-20T00:01:24Z</time>
      </trkpt>
      <trkpt lat="42.25184" lon="8.95998">
        <ele>1719.585</ele>
        <time>2020-03-20T00:01:44Z</time>
      </trkpt>
      <trkpt lat="42.25154" lon="8.96022">
        <ele>1718.913</ele>
        <time>2020-03-20T00:02:04Z</time>
      </trkpt>
      <trkpt lat="42.25137" lon="8.9603">
        <ele>1717.808</ele>
        <time>2020-03-20T00:02:24Z</time>
      </trkpt>
      <trkpt lat="42.25131" lon="8.96051">
        <ele>1715.451</ele>
        <time>2020-03-20T00:02:44Z</time>
      </trkpt>
      <trkpt lat="42.25102" lon="8.96095">
        <ele>1708.284</ele>
        <time>2020-03-20T00:03:04Z</time>
      </trkpt>
      <trkpt lat="42.25098" lon="8.96119">
        <ele>1705.756</ele>
        <time>2020-03-20T00:03:24Z</time>
      </trkpt>
      <trkpt lat="42.25084" lon="8.96136">
        <ele>1703.354</ele>
        <time>2020-03-20T00:03:44Z</time>
      </trkpt>
      <trkpt lat="42.25078" lon="8.9616">
        <ele>1698.768</ele>
        <time>2020-03-20T00:04:04Z</time>
      </trkpt>
      <trkpt lat="42.25045" lon="8.96176">
        <ele>1692.822</ele>
        <time>2020-03-20T00:04:24Z</time>
      </trkpt>
      <trkpt lat="42.24968" lon="8.96211">
        <ele>1673.555</ele>
        <time>2020-03-20T00:04:44Z</time>
      </trkpt>
      <trkpt lat="42.24922" lon="8.96178">
        <ele>1666.391</ele>
        <time>2020-03-20T00:05:04Z</time>
      </trkpt>
      <trkpt lat="42.24826" lon="8.96176">
        <ele>1650.081</ele>
        <time>2020-03-20T00:05:24Z</time>
      </trkpt>
      <trkpt lat="42.24801" lon="8.96215">
        <ele>1641.961</ele>
        <time>2020-03-20T00:05:44Z</time>
      </trkpt>
      <trkpt lat="42.24781" lon="8.96219">
        <ele>1638.817</ele>
        <time>2020-03-20T00:06:04Z</time>
      </trkpt>
      <trkpt lat="42.2477" lon="8.96239">
        <ele>1635.508</ele>
        <time>2020-03-20T00:06:24Z</time>
      </trkpt>
      <trkpt lat="42.24753" lon="8.96241">
        <ele>1632.612</ele>
        <time>2020-03-20T00:06:44Z</time>
      </trkpt>
      <trkpt lat="42.24728" lon="8.96273">
        <ele>1626.855</ele>
        <time>2020-03-20T00:07:04Z</time>
      </trkpt>
      <trkpt lat="42.24687" lon="8.96297">
        <ele>1621.057</ele>
        <time>2020-03-20T00:07:24Z</time>
      </trkpt>
      <trkpt lat="42.24651" lon="8.96309">
        <ele>1618.325</ele>
        <time>2020-03-20T00:07:44Z</time>
      </trkpt>
      <trkpt lat="42.24623" lon="8.96363">
        <ele>1615.979</ele>
        <time>2020-03-20T00:08:04Z</time>
      </trkpt>
      <trkpt lat="42.24601" lon="8.96381">
        <ele>1615.363</ele>
        <time>2020-03-20T00:08:24Z</time>
      </trkpt>
      <trkpt lat="42.24599" lon="8.96415">
        <ele>1613.736</ele>
        <time>2020-03-20T00:08:44Z</time>
      </trkpt>
      <trkpt lat="42.24577" lon="8.96431">
        <ele>1611.382</ele>
        <time>2020-03-20T00:09:04Z</time>
      </trkpt>
      <trkpt lat="42.2457" lon="8.96457">
        <ele>1607.598</ele>
        <time>2020-03-20T00:09:24Z</time>
      </trkpt>
      <trkpt lat="42.24549" lon="8.96465">
        <ele>1604.915</ele>
        <time>2020-03-20T00:09:44Z</time>
      </trkpt>
      <trkpt lat="42.24534" lon="8.96555">
        <ele>1601.726</ele>
        <time>2020-03-20T00:10:04Z</time>
      </trkpt>
      <trkpt lat="42.24479" lon="8.96575">
        <ele>1601.508</ele>
        <time>2020-03-20T00:10:24Z</time>
      </trkpt>
      <trkpt lat="42.24447" lon="8.96617">
        <ele>1599.643</ele>
        <time>2020-03-20T00:10:44Z</time>
      </trkpt>
      <trkpt lat="42.24433" lon="8.96643">
        <ele>1600.536</ele>
        <time>2020-03-20T00:11:04Z</time>
      </trkpt>
      <trkpt lat="42.24414" lon="8.96659">
        <ele>1599.658</ele>
        <time>2020-03-20T00:11:24Z</time>
      </trkpt>
      <trkpt lat="42.24383" lon="8.96689">
        <ele>1599.626</ele>
        <time>2020-03-20T00:11:44Z</time>
      </trkpt>
      <trkpt lat="42.24358" lon="8.96767">
        <ele>1598.15</ele>
        <time>2020-03-20T00:12:04Z</time>
      </trkpt>
      <trkpt lat="42.24315" lon="8.96815">
        <ele>1598.034</ele>
        <time>2020-03-20T00:12:24Z</time>
      </trkpt>
      <trkpt lat="42.24281" lon="8.96829">
        <ele>1601.127</ele>
        <time>2020-03-20T00:12:44Z</time>
      </trkpt>
      <trkpt lat="42.2422" lon="8.96929">
        <ele>1605.223</ele>
        <time>2020-03-20T00:13:04Z</time>
      </trkpt>
      <trkpt lat="42.24198" lon="8.96985">
        <ele>1604.296</ele>
        <time>2020-03-20T00:13:24Z</time>
      </trkpt>
      <trkpt lat="42.24177" lon="8.97025">
        <ele>1602.631</ele>
        <time>2020-03-20T00:13:44Z</time>
      </trkpt>
      <trkpt lat="42.24165" lon="8.97027">
        <ele>1604.424</ele>
        <time>2020-03-20T00:14:04Z</time>
      </trkpt>
      <trkpt lat="42.24119" lon="8.97099">
        <ele>1598.508</ele>
        <time>2020-03-20T00:14:24Z</time>
      </trkpt>
      <trkpt lat="42.24079" lon="8.97129">
        <ele>1600.483</ele>
        <time>2020-03-20T00:14:44Z</time>
      </trkpt>
      <trkpt lat="42.24012" lon="8.97206">
        <ele>1599.646</ele>
        <time>2020-03-20T00:15:04Z</time>
      </trkpt>
      <trkpt lat="42.23956" lon="8.97298">
        <ele>1594.568</ele>
        <time>2020-03-20T00:15:24Z</time>
      </trkpt>
      <trkpt lat="42.23919" lon="8.97318">
        <ele>1598.286</ele>
        <time>2020-03-20T00:15:44Z</time>
      </trkpt>
      <trkpt lat="42.23879" lon="8.97362">
        <ele>1599.05</ele>
        <time>2020-03-20T00:16:04Z</time>
      </trkpt>
      <trkpt lat="42.23827" lon="8.9739">
        <ele>1594.484</ele>
        <time>2020-03-20T00:16:24Z</time>
      </trkpt>
      <trkpt lat="42.23802" lon="8.97412">
        <ele>1590.177</ele>
        <time>2020-03-20T00:16:44Z</time>
      </trkpt>
      <trkpt lat="42.23768" lon="8.9743">
        <ele>1593.883</ele>
        <time>2020-03-20T00:17:04Z</time>
      </trkpt>
      <trkpt lat="42.23716" lon="8.97472">
        <ele>1595.182</ele>
        <time>2020-03-20T00:17:24Z</time>
      </trkpt>
      <trkpt lat="42.23708" lon="8.97422">
        <ele>1600.143</ele>
        <time>2020-03-20T00:17:44Z</time>
      </trkpt>
      <trkpt lat="42.23673" lon="8.9744">
        <ele>1591.617</ele>
        <time>2020-03-20T00:18:04Z</time>
      </trkpt>
      <trkpt lat="42.23646" lon="8.97444">
        <ele>1584.808</ele>
        <time>2020-03-20T00:18:24Z</time>
      </trkpt>
      <trkpt lat="42.23602" lon="8.97486">
        <ele>1572.162</ele>
        <time>2020-03-20T00:18:44Z</time>
      </trkpt>
      <trkpt lat="42.23577" lon="8.97472">
        <ele>1566.855</ele>
        <time>2020-03-20T00:19:04Z</time>
      </trkpt>
      <trkpt lat="42.23515" lon="8.97512">
        <ele>1554.137</ele>
        <time>2020-03-20T00:19:24Z</time>
      </trkpt>
      <trkpt lat="42.23488" lon="8.97537">
        <ele>1549.235</ele>
        <time>2020-03-20T00:19:44Z</time>
      </trkpt>
      <trkpt lat="42.23436" lon="8.97557">
        <ele>1543.499</ele>
        <time>2020-03-20T00:20:04Z</time>
      </trkpt>
      <trkpt lat="42.23411" lon="8.97577">
        <ele>1542.683</ele>
        <time>2020-03-20T00:20:24Z</time>
      </trkpt>
      <trkpt lat="42.23371" lon="8.97594">
        <ele>1542.016</ele>
        <time>2020-03-20T00:20:44Z</time>
      </trkpt>
      <trkpt lat="42.23342" lon="8.97609">
        <ele>1541.492</ele>
        <time>2020-03-20T00:21:04Z</time>
      </trkpt>
      <trkpt lat="42.23225" lon="8.97646">
        <ele>1536.796</ele>
        <time>2020-03-20T00:21:24Z</time>
      </trkpt>
      <trkpt lat="42.23138" lon="8.97718">
        <ele>1540.231</ele>
        <time>2020-03-20T00:21:44Z</time>
      </trkpt>
      <trkpt lat="42.23104" lon="8.97727">
        <ele>1542.824</ele>
        <time>2020-03-20T00:22:04Z</time>
      </trkpt>
      <trkpt lat="42.23015" lon="8.97778">
        <ele>1540.108</ele>
        <time>2020-03-20T00:22:24Z</time>
      </trkpt>
      <trkpt lat="42.22938" lon="8.97766">
        <ele>1541.423</ele>
        <time>2020-03-20T00:22:44Z</time>
      </trkpt>
      <trkpt lat="42.22909" lon="8.97774">
        <ele>1541.836</ele>
        <time>2020-03-20T00:23:04Z</time>
      </trkpt>
      <trkpt lat="42.22883" lon="8.97775">
        <ele>1542.868</ele>
        <time>2020-03-20T00:23:24Z</time>
      </trkpt>
      <trkpt lat="42.22849" lon="8.97786">
        <ele>1540.056</ele>
        <time>2020-03-20T00:23:44Z</time>
      </trkpt>
      <trkpt lat="42.22812" lon="8.9778">
        <ele>1542.03</ele>
        <time>2020-03-20T00:24:04Z</time>
      </trkpt>
      <trkpt lat="42.2279" lon="8.97795">
        <ele>1544.974</ele>
        <time>2020-03-20T00:24:24Z</time>
      </trkpt>
      <trkpt lat="42.22759" lon="8.9779">
        <ele>1549.337</ele>
        <time>2020-03-20T00:24:44Z</time>
      </trkpt>
      <trkpt lat="42.22735" lon="8.97806">
        <ele>1551.853</ele>
        <time>2020-03-20T00:25:04Z</time>
      </trkpt>
      <trkpt lat="42.22708" lon="8.97809">
        <ele>1557.158</ele>
        <time>2020-03-20T00:25:24Z</time>
      </trkpt>
      <trkpt lat="42.22695" lon="8.97827">
        <ele>1559.852</ele>
        <time>2020-03-20T00:25:44Z</time>
      </trkpt>
      <trkpt lat="42.22676" lon="8.97834">
        <ele>1562.617</ele>
        <time>2020-03-20T00:26:04Z</time>
      </trkpt>
      <trkpt lat="42.2266" lon="8.97853">
        <ele>1565.208</ele>
        <time>2020-03-20T00:26:24Z</time>
      </trkpt>
      <trkpt lat="42.22618" lon="8.97848">
        <ele>1570.639</ele>
        <time>2020-03-20T00:26:44Z</time>
      </trkpt>
      <trkpt lat="42.22593" lon="8.97883">
        <ele>1573.992</ele>
        <time>2020-03-20T00:27:04Z</time>
      </trkpt>
      <trkpt lat="42.22567" lon="8.97896">
        <ele>1576.794</ele>
        <time>2020-03-20T00:27:24Z</time>
      </trkpt>
      <trkpt lat="42.22555" lon="8.97909">
        <ele>1578.452</ele>
        <time>2020-03-20T00:27:44Z</time>
      </trkpt>
      <trkpt lat="42.22524" lon="8.97916">
        <ele>1576.446</ele>
        <time>2020-03-20T00:28:04Z</time>
      </trkpt>
      <trkpt lat="42.2249" lon="8.97929">
        <ele>1574.92</ele>
        <time>2020-03-20T00:28:24Z</time>
      </trkpt>
      <trkpt lat="42.22462" lon="8.97946">
        <ele>1577.983</ele>
        <time>2020-03-20T00:28:44Z</time>
      </trkpt>
      <trkpt lat="42.22427" lon="8.97955">
        <ele>1576.799</ele>
        <time>2020-03-20T00:29:04Z</time>
      </trkpt>
      <trkpt lat="42.22405" lon="8.97983">
        <ele>1583.179</ele>
        <time>2020-03-20T00:29:24Z</time>
      </trkpt>
      <trkpt lat="42.22383" lon="8.97971">
        <ele>1578.105</ele>
        <time>2020-03-20T00:29:44Z</time>
      </trkpt>
      <trkpt lat="42.22331" lon="8.97965">
        <ele>1578.325</ele>
        <time>2020-03-20T00:30:04Z</time>
      </trkpt>
      <trkpt lat="42.22305" lon="8.97964">
        <ele>1576.808</ele>
        <time>2020-03-20T00:30:24Z</time>
      </trkpt>
      <trkpt lat="42.22283" lon="8.97957">
        <ele>1572.331</ele>
        <time>2020-03-20T00:30:44Z</time>
      </trkpt>
      <trkpt lat="42.22263" lon="8.97967">
        <ele>1575.664</ele>
        <time>2020-03-20T00:31:04Z</time>
      </trkpt>
      <trkpt lat="42.2223" lon="8.97973">
        <ele>1574.296</ele>
        <time>2020-03-20T00:31:24Z</time>
      </trkpt>
      <trkpt lat="42.22198" lon="8.97984">
        <ele>1575.474</ele>
        <time>2020-03-20T00:31:44Z</time>
      </trkpt>
      <trkpt lat="42.22154" lon="8.97992">
        <ele>1574.258</ele>
        <time>2020-03-20T00:32:04Z</time>
      </trkpt>
      <trkpt lat="42.22139" lon="8.98008">
        <ele>1578.032</ele>
        <time>2020-03-20T00:32:24Z</time>
      </trkpt>
      <trkpt lat="42.22098" lon="8.98032">
        <ele>1580.755</ele>
        <time>2020-03-20T00:32:44Z</time>
      </trkpt>
      <trkpt lat="42.22084" lon="8.98035">
        <ele>1581.161</ele>
        <time>2020-03-20T00:33:04Z</time>
      </trkpt>
      <trkpt lat="42.22052" lon="8.98059">
        <ele>1587.499</ele>
        <time>2020-03-20T00:33:24Z</time>
      </trkpt>
      <trkpt lat="42.22051" lon="8.98075">
        <ele>1590.507</ele>
        <time>2020-03-20T00:33:44Z</time>
      </trkpt>
      <trkpt lat="42.22031" lon="8.98085">
        <ele>1592.527</ele>
        <time>2020-03-20T00:34:04Z</time>
      </trkpt>
      <trkpt lat="42.22028" lon="8.98098">
        <ele>1595.308</ele>
        <time>2020-03-20T00:34:24Z</time>
      </trkpt>
    </trkseg>
  </trk>
</gpx>